createdAt,value
2019-04-05T00:00:09.498Z,97418.38
2019-04-05T00:05:16.855Z,97427.27
2019-04-05T00:10:22.186Z,97429.60
2019-04-05T00:15:27.863Z,97415.98
2019-04-05T00:20:33.207Z,97411.77
2019-04-05T00:25:39.079Z,97402.63
2019-04-05T00:30:44.837Z,97396.13
2019-04-05T00:35:50.179Z,97399.98
2019-04-05T00:40:55.409Z,97401.30
2019-04-05T00:46:00.814Z,97411.63
2019-04-05T00:51:06.147Z,97414.05
2019-04-05T00:56:11.511Z,97418.02
2019-04-05T01:01:17.310Z,97422.34
2019-04-05T01:06:23.857Z,97403.50
2019-04-05T01:11:29.130Z,97410.00
2019-04-05T01:16:35.135Z,97413.61
2019-04-05T01:21:42.139Z,97412.69
2019-04-05T01:26:49.548Z,97414.36
2019-04-05T01:31:55.257Z,97417.97
2019-04-05T01:37:01.380Z,97411.01
2019-04-05T01:42:07.227Z,97407.72
2019-04-05T01:47:12.813Z,97413.59
2019-04-05T01:52:18.134Z,97414.97
2019-04-05T01:57:23.439Z,97425.92
2019-04-05T02:02:29.236Z,97439.84
2019-04-05T02:07:34.528Z,97432.03
2019-04-05T02:12:41.768Z,97415.38
2019-04-05T02:17:47.260Z,97416.23
2019-04-05T02:22:52.821Z,97412.58
2019-04-05T02:27:59.014Z,97411.07
2019-04-05T02:33:04.598Z,97404.86
2019-04-05T02:38:09.941Z,97387.22
2019-04-05T02:43:18.078Z,97382.19
2019-04-05T02:48:24.312Z,97388.78
2019-04-05T02:53:31.762Z,97382.53
2019-04-05T02:58:38.839Z,97384.17
2019-04-05T03:03:44.305Z,97390.53
2019-04-05T03:08:50.083Z,97404.72
2019-04-05T03:13:57.614Z,97411.97
2019-04-05T03:19:10.331Z,97404.45
2019-04-05T03:24:19.119Z,97398.20
2019-04-05T03:29:25.172Z,97417.31
2019-04-05T03:34:30.540Z,97424.67
2019-04-05T03:39:35.963Z,97428.28
2019-04-05T03:44:42.608Z,97436.81
2019-04-05T03:49:48.417Z,97443.67
2019-04-05T03:54:54.219Z,97469.23
2019-04-05T03:59:59.811Z,97463.41
2019-04-05T04:05:05.669Z,97448.26
2019-04-05T04:10:16.620Z,97437.84
2019-04-05T04:15:22.032Z,97447.48
2019-04-05T04:20:40.796Z,97448.91
2019-04-05T04:25:46.401Z,97450.48
2019-04-05T04:30:52.471Z,97452.88
2019-04-05T04:35:57.836Z,97448.91
2019-04-05T04:41:03.550Z,97443.73
2019-04-05T04:46:09.541Z,97453.48
2019-04-05T04:51:15.162Z,97459.02
2019-04-05T04:56:20.799Z,97462.23
2019-04-05T05:01:26.379Z,97457.91
2019-04-05T05:06:31.779Z,97471.51
2019-04-05T05:11:37.310Z,97468.16
2019-04-05T05:16:43.198Z,97470.66
2019-04-05T05:21:49.789Z,97467.05
2019-04-05T05:26:55.293Z,97458.27
2019-04-05T05:32:00.962Z,97470.41
2019-04-05T05:37:06.504Z,97470.63
2019-04-05T05:42:11.797Z,97479.66
2019-04-05T05:47:17.032Z,97470.97
2019-04-05T05:52:22.644Z,97467.52
2019-04-05T05:57:27.938Z,97465.27
2019-04-05T06:02:33.295Z,97468.33
2019-04-05T06:07:39.096Z,97476.58
2019-04-05T06:12:45.502Z,97469.39
2019-04-05T06:18:03.823Z,97462.03
2019-04-05T06:22:58.130Z,97461.53
2019-04-05T06:28:03.350Z,97456.74
2019-04-05T06:33:08.840Z,97439.55
2019-04-05T06:38:14.538Z,97445.65
2019-04-05T06:43:19.760Z,97444.72
2019-04-05T06:48:25.082Z,97449.04
2019-04-05T06:53:30.324Z,97461.05
2019-04-05T06:58:35.832Z,97464.30
2019-04-05T07:03:41.094Z,97464.19
2019-04-05T07:08:53.683Z,97465.77
2019-04-05T07:13:53.774Z,97467.91
2019-04-05T07:18:59.011Z,97466.61
2019-04-05T07:24:04.342Z,97473.73
2019-04-05T07:29:10.848Z,97476.27
2019-04-05T07:34:16.611Z,97478.20
2019-04-05T07:39:22.026Z,97493.19
2019-04-05T07:44:27.289Z,97490.27
2019-04-05T07:49:32.781Z,97501.97
2019-04-05T07:54:38.104Z,97500.03
2019-04-05T07:59:43.415Z,97498.67
2019-04-05T08:04:49.182Z,97502.47
2019-04-05T08:09:56.258Z,97508.23
2019-04-05T08:15:02.220Z,97509.56
2019-04-05T08:20:07.666Z,97519.66
2019-04-05T08:25:13.264Z,97511.84
2019-04-05T08:33:09.600Z,97527.95
2019-04-05T08:38:15.011Z,97528.38
2019-04-05T08:43:20.581Z,97532.75
2019-04-05T08:48:25.882Z,97523.47
2019-04-05T08:53:31.129Z,97520.53
2019-04-05T08:58:36.342Z,97527.33
2019-04-05T09:03:41.807Z,97518.73
2019-04-05T09:08:47.110Z,97520.98
2019-04-05T09:13:52.723Z,97522.58
2019-04-05T09:18:57.986Z,97515.98
2019-04-05T09:24:03.225Z,97518.80
2019-04-05T09:29:09.408Z,97511.08
2019-04-05T09:34:15.220Z,97507.84
2019-04-05T09:39:20.884Z,97502.70
2019-04-05T09:44:26.305Z,97504.64
2019-04-05T09:49:37.074Z,97502.41
2019-04-05T09:54:39.072Z,97506.12
2019-04-05T09:59:44.309Z,97502.86
2019-04-05T10:04:49.983Z,97499.00
2019-04-05T10:09:55.297Z,97507.22
2019-04-05T10:16:14.257Z,97501.31
2019-04-05T10:21:19.554Z,97503.42
2019-04-05T10:26:25.123Z,97500.76
2019-04-05T10:31:30.800Z,97509.52
2019-04-05T10:36:36.401Z,97509.69
2019-04-05T10:41:42.031Z,97509.87
2019-04-05T10:46:47.491Z,97511.33
2019-04-05T10:51:52.973Z,97504.20
2019-04-05T10:56:58.343Z,97496.99
2019-04-05T11:02:03.813Z,97505.59
2019-04-05T11:07:09.243Z,97499.24
2019-04-05T11:12:14.673Z,97499.43
2019-04-05T11:17:20.029Z,97494.99
2019-04-05T11:22:25.475Z,97492.95
2019-04-05T11:27:30.972Z,97491.09
2019-04-05T11:32:36.686Z,97489.81
2019-04-05T11:37:42.077Z,97482.91
2019-04-05T11:42:48.814Z,97476.97
2019-04-05T11:47:55.681Z,97470.31
2019-04-05T11:53:03.092Z,97467.75
2019-04-05T11:58:08.367Z,97463.07
2019-04-05T12:03:14.039Z,97457.75
2019-04-05T12:08:19.456Z,97458.52
2019-04-05T12:13:24.712Z,97451.30
2019-04-05T12:18:30.028Z,97464.02
2019-04-05T12:23:35.370Z,97450.24
2019-04-05T12:28:41.026Z,97454.02
2019-04-05T12:33:47.041Z,97455.80
2019-04-05T12:38:54.172Z,97450.84
2019-04-05T12:44:00.674Z,97452.22
2019-04-05T12:49:06.698Z,97447.50
2019-04-05T12:54:12.040Z,97443.47
2019-04-05T12:59:17.315Z,97433.91
2019-04-05T13:04:22.891Z,97426.05
2019-04-05T13:09:28.659Z,97429.91
2019-04-05T13:14:34.065Z,97427.59
2019-04-05T13:19:39.692Z,97427.16
2019-04-05T13:24:45.369Z,97425.58
2019-04-05T13:29:51.026Z,97421.89
2019-04-05T13:34:56.500Z,97419.53
2019-04-05T13:40:06.248Z,97417.91
2019-04-05T13:45:11.579Z,97407.78
2019-04-05T13:50:19.419Z,97414.12
2019-04-05T13:55:24.191Z,97408.75
2019-04-05T14:00:29.522Z,97402.52
2019-04-05T14:05:35.315Z,97404.90
2019-04-05T14:10:41.936Z,97396.48
2019-04-05T14:15:47.178Z,97394.03
2019-04-05T14:20:52.838Z,97385.58
2019-04-05T14:25:59.913Z,97388.72
2019-04-05T14:31:05.692Z,97388.16
2019-04-05T14:36:11.093Z,97383.66
2019-04-05T14:41:17.162Z,97372.92
2019-04-05T14:46:22.451Z,97372.34
2019-04-05T14:51:28.655Z,97371.58
2019-04-05T14:56:36.557Z,97370.63
2019-04-05T15:01:42.168Z,97373.88
2019-04-05T15:06:48.645Z,97367.45
2019-04-05T15:11:56.453Z,97370.25
2019-04-05T15:17:02.864Z,97374.62
2019-04-05T15:22:10.902Z,97376.64
2019-04-05T15:27:15.293Z,97381.63
2019-04-05T15:32:20.972Z,97379.30
2019-04-05T15:37:26.542Z,97375.67
2019-04-05T15:42:32.007Z,97375.27
2019-04-05T15:47:39.394Z,97380.51
2019-04-05T15:52:45.179Z,97377.30
2019-04-05T15:57:50.683Z,97373.52
2019-04-05T16:02:56.212Z,97384.50
2019-04-05T16:08:01.766Z,97391.23
2019-04-05T16:13:08.247Z,97389.47
2019-04-05T16:18:14.607Z,97389.13
2019-04-05T16:23:19.919Z,97387.75
2019-04-05T16:28:25.266Z,97390.59
2019-04-05T16:33:30.603Z,97391.05
2019-04-05T16:38:36.365Z,97387.24
2019-04-05T16:43:41.678Z,97397.86
2019-04-05T16:48:47.040Z,97403.17
2019-04-05T16:54:03.224Z,97398.55
2019-04-05T16:59:08.979Z,97399.41
2019-04-05T17:04:14.815Z,97400.09
2019-04-05T17:09:20.704Z,97399.78
2019-04-05T17:14:25.933Z,97404.70
2019-04-05T17:19:31.640Z,97401.84
2019-04-05T17:24:37.262Z,97404.91
2019-04-05T17:29:42.668Z,97403.98
2019-04-05T17:34:48.664Z,97410.59
2019-04-05T17:39:54.585Z,97405.02
2019-04-05T17:45:00.006Z,97407.55
2019-04-05T17:50:05.838Z,97407.52
2019-04-05T17:55:12.071Z,97413.62
2019-04-05T18:00:21.910Z,97409.26
2019-04-05T18:05:27.213Z,97419.17
2019-04-05T18:10:32.691Z,97421.42
2019-04-05T18:15:46.683Z,97420.55
2019-04-05T18:20:45.810Z,97420.08
2019-04-05T18:25:51.169Z,97418.41
2019-04-05T18:30:56.569Z,97413.80
2019-04-05T18:36:01.976Z,97421.83
2019-04-05T18:41:07.309Z,97412.59
2019-04-05T18:46:12.681Z,97423.84
2019-04-05T18:51:18.298Z,97427.70
2019-04-05T18:56:23.772Z,97419.80
2019-04-05T19:01:29.079Z,97426.84
2019-04-05T19:06:34.419Z,97432.52
2019-04-05T19:11:39.771Z,97435.79
2019-04-05T19:16:45.174Z,97439.12
2019-04-05T19:21:52.194Z,97441.89
2019-04-05T19:26:57.453Z,97436.77
2019-04-05T19:52:34.271Z,97436.53
2019-04-05T19:57:39.581Z,97436.02
2019-04-05T20:02:44.901Z,97433.37
2019-04-05T20:07:50.447Z,97433.53
2019-04-05T20:12:55.826Z,97436.30
2019-04-05T20:18:01.505Z,97427.30
2019-04-05T20:23:07.389Z,97415.58
2019-04-05T20:28:13.142Z,97428.56
2019-04-05T20:33:18.561Z,97423.61
2019-04-05T20:38:26.716Z,97430.70
2019-04-05T20:43:32.218Z,97433.65
2019-04-05T20:48:37.699Z,97431.34
2019-04-05T20:53:44.450Z,97423.66
2019-04-05T20:58:50.584Z,97416.74
2019-04-05T21:03:56.892Z,97422.45
2019-04-05T21:09:02.595Z,97419.96
2019-04-05T21:14:10.545Z,97428.06
2019-04-05T21:19:16.231Z,97424.77
2019-04-05T21:24:21.969Z,97426.72
2019-04-05T21:29:29.436Z,97423.38
2019-04-05T21:34:35.129Z,97427.31
2019-04-05T21:39:41.185Z,97427.07
2019-04-05T21:44:46.617Z,97433.81
2019-04-05T21:49:52.901Z,97436.59
2019-04-05T21:54:58.890Z,97440.51
2019-04-05T22:00:08.733Z,97439.02
2019-04-05T22:05:15.889Z,97434.91
2019-04-05T22:10:21.410Z,97441.73
2019-04-05T22:15:26.836Z,97440.70
2019-04-05T22:20:32.311Z,97441.84
2019-04-05T22:25:37.663Z,97447.78
2019-04-05T22:30:43.018Z,97452.73
2019-04-05T22:35:48.686Z,97440.34
2019-04-05T22:40:54.093Z,97442.02
2019-04-05T22:45:59.741Z,97444.05
2019-04-05T22:51:05.062Z,97437.63
2019-04-05T22:56:10.326Z,97437.75
2019-04-05T23:01:15.750Z,97436.95
2019-04-05T23:06:21.465Z,97435.55
2019-04-05T23:11:26.772Z,97418.53
2019-04-05T23:16:32.293Z,97422.67
2019-04-05T23:21:38.281Z,97415.88
2019-04-05T23:26:43.640Z,97419.39
2019-04-05T23:31:49.020Z,97425.46
2019-04-05T23:36:54.584Z,97422.74
2019-04-05T23:41:59.825Z,97427.30
2019-04-05T23:47:05.168Z,97430.70
2019-04-05T23:52:10.430Z,97435.39
2019-04-05T23:57:16.083Z,97426.84
